createdAt,value
2017-08-16T00:02:13.190Z,85.00
2017-08-16T00:04:39.462Z,85.50
2017-08-16T00:07:05.757Z,85.50
2017-08-16T00:09:32.042Z,86.70
2017-08-16T00:11:58.340Z,85.70
2017-08-16T00:14:25.234Z,85.50
2017-08-16T00:16:52.322Z,85.50
2017-08-16T00:19:18.594Z,86.60
2017-08-16T00:21:44.877Z,86.40
2017-08-16T00:24:11.120Z,86.70
2017-08-16T00:26:37.418Z,86.30
2017-08-16T00:29:03.718Z,85.30
2017-08-16T00:31:30.411Z,85.70
2017-08-16T00:33:56.687Z,87.10
2017-08-16T00:36:24.782Z,86.90
2017-08-16T00:38:52.658Z,87.50
2017-08-16T00:41:18.972Z,87.50
2017-08-16T00:43:45.286Z,86.90
2017-08-16T00:46:12.538Z,86.00
2017-08-16T00:48:39.529Z,85.50
2017-08-16T00:51:08.823Z,85.20
2017-08-16T00:53:35.114Z,86.20
2017-08-16T00:56:01.429Z,86.40
2017-08-16T00:58:28.946Z,86.30
2017-08-16T01:00:55.261Z,85.90
2017-08-16T01:03:23.733Z,85.50
2017-08-16T01:05:51.651Z,85.40
2017-08-16T01:08:18.272Z,85.70
2017-08-16T01:10:46.542Z,85.70
2017-08-16T01:13:13.460Z,85.60
2017-08-16T01:15:41.250Z,84.30
2017-08-16T01:18:09.154Z,83.80
2017-08-16T01:20:36.452Z,83.10
2017-08-16T01:23:02.749Z,82.40
2017-08-16T01:25:30.005Z,82.60
2017-08-16T01:27:56.274Z,81.90
2017-08-16T01:30:22.610Z,83.30
2017-08-16T01:32:48.883Z,82.70
2017-08-16T01:35:15.164Z,81.10
2017-08-16T01:37:41.428Z,81.50
2017-08-16T01:40:08.116Z,83.60
2017-08-16T01:42:34.387Z,83.60
2017-08-16T01:45:00.949Z,81.30
2017-08-16T01:47:27.200Z,83.90
2017-08-16T01:49:53.468Z,84.60
2017-08-16T01:52:19.750Z,84.60
2017-08-16T01:54:46.044Z,86.50
2017-08-16T01:57:12.277Z,83.40
2017-08-16T01:59:38.910Z,85.60
2017-08-16T02:02:05.519Z,85.30
2017-08-16T02:04:31.742Z,85.30
2017-08-16T02:06:57.981Z,85.50
2017-08-16T02:09:24.202Z,85.30
2017-08-16T02:11:50.420Z,85.10
2017-08-16T02:14:17.587Z,85.10
2017-08-16T02:16:43.826Z,85.10
2017-08-16T02:19:10.067Z,83.70
2017-08-16T02:21:36.296Z,83.80
2017-08-16T02:24:02.557Z,84.00
2017-08-16T02:26:28.847Z,83.90
2017-08-16T02:28:55.506Z,84.70
2017-08-16T02:31:22.071Z,84.70
2017-08-16T02:33:48.341Z,84.20
2017-08-16T02:36:14.619Z,84.50
2017-08-16T02:38:40.910Z,84.30
2017-08-16T02:41:07.177Z,84.40
2017-08-16T02:43:33.448Z,83.40
2017-08-16T02:45:59.723Z,84.80
2017-08-16T02:48:25.993Z,85.30
2017-08-16T02:50:52.275Z,84.70
2017-08-16T02:53:18.593Z,84.20
2017-08-16T02:55:45.305Z,85.50
2017-08-16T02:58:11.612Z,85.50
2017-08-16T03:00:38.759Z,85.30
2017-08-16T03:03:05.054Z,84.90
2017-08-16T03:05:31.350Z,84.30
2017-08-16T03:07:57.644Z,84.20
2017-08-16T03:10:23.954Z,84.20
2017-08-16T03:12:50.258Z,84.10
2017-08-16T03:15:16.545Z,84.00
2017-08-16T03:17:43.205Z,84.40
2017-08-16T03:20:09.478Z,84.30
2017-08-16T03:22:35.792Z,83.90
2017-08-16T03:25:02.118Z,83.90
2017-08-16T03:27:28.477Z,83.80
2017-08-16T03:29:54.765Z,83.70
2017-08-16T03:32:21.377Z,84.40
2017-08-16T03:34:47.680Z,84.50
2017-08-16T03:37:13.969Z,84.50
2017-08-16T03:39:40.681Z,84.50
2017-08-16T03:42:06.983Z,84.50
2017-08-16T03:44:33.310Z,84.60
2017-08-16T03:46:59.614Z,84.40
2017-08-16T03:49:25.925Z,84.70
2017-08-16T03:51:52.229Z,84.70
2017-08-16T03:54:18.887Z,84.70
2017-08-16T03:56:45.204Z,84.30
2017-08-16T03:59:11.484Z,84.50
2017-08-16T04:01:37.774Z,84.20
2017-08-16T04:04:04.086Z,84.50
2017-08-16T04:06:30.432Z,84.40
2017-08-16T04:08:56.741Z,84.30
2017-08-16T04:11:23.058Z,84.40
2017-08-16T04:13:49.347Z,84.60
2017-08-16T04:16:15.968Z,85.00
2017-08-16T04:18:42.258Z,85.10
2017-08-16T04:21:08.560Z,85.30
2017-08-16T04:23:34.883Z,85.30
2017-08-16T04:26:01.174Z,84.60
2017-08-16T04:28:27.495Z,84.80
2017-08-16T04:30:53.815Z,84.80
2017-08-16T04:33:20.871Z,84.30
2017-08-16T04:35:47.142Z,85.10
2017-08-16T04:38:13.471Z,85.40
2017-08-16T04:40:39.788Z,85.00
2017-08-16T04:43:06.500Z,85.50
2017-08-16T04:45:32.851Z,85.50
2017-08-16T04:47:59.538Z,84.40
2017-08-16T04:50:25.845Z,84.40
2017-08-16T04:52:52.460Z,83.70
2017-08-16T04:55:18.794Z,83.40
2017-08-16T04:57:45.462Z,83.50
2017-08-16T05:00:11.777Z,83.50
2017-08-16T05:02:38.125Z,83.00
2017-08-16T05:05:04.454Z,82.80
2017-08-16T05:07:30.789Z,82.80
2017-08-16T05:09:57.115Z,84.00
2017-08-16T05:12:23.410Z,84.40
2017-08-16T05:14:50.117Z,84.40
2017-08-16T05:17:16.410Z,84.40
2017-08-16T05:19:42.752Z,83.80
2017-08-16T05:22:09.063Z,84.30
2017-08-16T05:24:35.416Z,84.20
2017-08-16T05:27:01.720Z,85.30
2017-08-16T05:29:28.061Z,85.00
2017-08-16T05:31:54.363Z,84.80
2017-08-16T05:34:20.715Z,84.40
2017-08-16T05:36:47.067Z,84.70
2017-08-16T05:39:13.410Z,85.10
2017-08-16T05:41:39.704Z,85.80
2017-08-16T05:44:06.038Z,86.10
2017-08-16T05:46:32.349Z,86.10
2017-08-16T05:48:58.636Z,85.90
2017-08-16T05:51:24.926Z,85.10
2017-08-16T05:53:51.191Z,85.10
2017-08-16T05:56:17.494Z,84.40
2017-08-16T05:58:43.788Z,82.70
2017-08-16T06:01:10.451Z,82.10
2017-08-16T06:03:36.733Z,82.10
2017-08-16T06:06:03.034Z,81.80
2017-08-16T06:08:29.319Z,80.90
2017-08-16T06:10:55.612Z,81.50
2017-08-16T06:13:21.930Z,81.80
2017-08-16T06:15:48.871Z,81.60
2017-08-16T06:18:15.186Z,81.60
2017-08-16T06:20:41.425Z,80.80
2017-08-16T06:23:08.450Z,80.50
2017-08-16T06:25:34.696Z,80.60
2017-08-16T06:28:01.294Z,80.30
2017-08-16T06:30:27.549Z,80.50
2017-08-16T06:32:53.826Z,79.90
2017-08-16T06:35:20.159Z,80.00
2017-08-16T06:37:46.453Z,80.40
2017-08-16T06:40:13.435Z,80.60
2017-08-16T06:42:39.723Z,80.30
2017-08-16T06:45:06.029Z,81.40
2017-08-16T06:47:32.656Z,82.00
2017-08-16T06:49:59.329Z,83.30
2017-08-16T06:52:25.616Z,83.30
2017-08-16T06:54:53.854Z,83.50
2017-08-16T06:57:21.875Z,84.60
2017-08-16T06:59:49.767Z,84.20
2017-08-16T07:02:17.001Z,84.20
2017-08-16T07:04:45.750Z,84.50
2017-08-16T07:07:12.041Z,85.00
2017-08-16T07:09:39.959Z,84.90
2017-08-16T07:12:06.287Z,84.90
2017-08-16T07:14:34.193Z,83.60
2017-08-16T07:17:01.558Z,82.60
2017-08-16T07:19:32.540Z,83.50
2017-08-16T07:21:59.835Z,82.50
2017-08-16T07:24:26.174Z,83.50
2017-08-16T07:26:53.425Z,82.60
2017-08-16T07:29:22.459Z,83.90
2017-08-16T07:31:48.771Z,83.00
2017-08-16T07:34:15.984Z,81.80
2017-08-16T07:36:42.330Z,81.80
2017-08-16T07:39:08.987Z,81.70
2017-08-16T07:41:36.732Z,79.70
2017-08-16T07:44:05.153Z,76.80
2017-08-16T07:46:32.279Z,76.00
2017-08-16T07:48:59.215Z,77.20
2017-08-16T07:51:29.081Z,75.50
2017-08-16T07:53:55.375Z,75.10
2017-08-16T07:56:21.689Z,75.80
2017-08-16T07:58:51.007Z,76.10
2017-08-16T08:01:17.303Z,78.00
2017-08-16T08:03:44.407Z,77.20
2017-08-16T08:06:11.595Z,76.60
2017-08-16T08:08:37.917Z,75.80
2017-08-16T08:11:05.149Z,73.40
2017-08-16T08:13:31.463Z,73.50
2017-08-16T08:15:57.767Z,71.80
2017-08-16T08:18:24.095Z,72.70
2017-08-16T08:20:53.411Z,72.60
2017-08-16T08:23:20.561Z,73.00
2017-08-16T08:25:46.865Z,71.40
2017-08-16T08:28:13.514Z,70.20
2017-08-16T08:30:39.833Z,70.60
2017-08-16T08:33:06.140Z,71.50
2017-08-16T08:35:33.785Z,71.10
2017-08-16T08:38:00.478Z,71.10
2017-08-16T08:40:26.811Z,71.10
2017-08-16T08:42:53.125Z,71.60
2017-08-16T08:45:19.482Z,72.00
2017-08-16T08:47:45.914Z,70.00
2017-08-16T08:50:13.062Z,70.00
2017-08-16T08:52:39.376Z,70.20
2017-08-16T08:55:06.193Z,69.50
2017-08-16T08:57:32.497Z,70.60
2017-08-16T08:59:59.191Z,69.70
2017-08-16T09:02:25.490Z,69.70
2017-08-16T09:04:51.785Z,69.80
2017-08-16T09:07:18.090Z,70.50
2017-08-16T09:09:44.403Z,71.00
2017-08-16T09:12:10.717Z,70.80
2017-08-16T09:14:37.006Z,67.00
2017-08-16T09:17:03.342Z,69.90
2017-08-16T09:19:29.669Z,70.70
2017-08-16T09:21:55.991Z,70.50
2017-08-16T09:24:22.348Z,72.30
2017-08-16T09:26:48.655Z,71.00
2017-08-16T09:29:14.973Z,71.40
2017-08-16T09:31:41.336Z,68.90
2017-08-16T09:34:08.055Z,71.10
2017-08-16T09:36:34.349Z,71.10
2017-08-16T09:39:00.700Z,70.90
2017-08-16T09:41:27.107Z,69.80
2017-08-16T09:43:53.810Z,67.90
2017-08-16T09:46:20.133Z,68.90
2017-08-16T09:48:46.426Z,67.30
2017-08-16T09:51:12.754Z,66.80
2017-08-16T09:53:39.069Z,66.80
2017-08-16T09:56:05.363Z,63.70
2017-08-16T09:58:31.661Z,64.90
2017-08-16T10:00:57.962Z,64.90
2017-08-16T10:03:24.245Z,61.40
2017-08-16T10:05:50.886Z,62.90
2017-08-16T10:08:17.167Z,63.00
2017-08-16T10:10:43.471Z,62.70
2017-08-16T10:13:09.795Z,63.30
2017-08-16T10:15:36.064Z,61.00
2017-08-16T10:18:02.707Z,61.90
2017-08-16T10:20:28.994Z,59.10
2017-08-16T10:22:55.277Z,61.30
2017-08-16T10:25:21.580Z,59.60
2017-08-16T10:27:47.856Z,60.20
2017-08-16T10:30:14.150Z,61.80
2017-08-16T10:32:40.450Z,58.70
2017-08-16T10:35:06.747Z,56.30
2017-08-16T10:37:33.040Z,59.70
2017-08-16T10:39:59.319Z,59.00
2017-08-16T10:42:25.606Z,58.90
2017-08-16T10:44:51.919Z,56.80
2017-08-16T10:47:18.205Z,59.10
2017-08-16T10:49:44.502Z,57.70
2017-08-16T10:52:10.770Z,59.90
2017-08-16T10:54:37.067Z,57.30
2017-08-16T10:57:03.342Z,57.80
2017-08-16T10:59:29.953Z,60.00
2017-08-16T11:01:56.208Z,59.50
2017-08-16T11:04:23.303Z,57.10
2017-08-16T11:06:49.582Z,54.20
2017-08-16T11:09:15.919Z,49.60
2017-08-16T11:11:42.196Z,52.00
2017-08-16T11:14:08.923Z,49.80
2017-08-16T11:16:35.564Z,49.80
2017-08-16T11:19:01.875Z,47.70
2017-08-16T11:21:28.164Z,49.70
2017-08-16T11:23:54.548Z,47.70
2017-08-16T11:26:20.872Z,51.50
2017-08-16T11:28:47.177Z,48.60
2017-08-16T11:31:13.488Z,47.10
2017-08-16T11:33:39.825Z,50.60
2017-08-16T11:36:06.474Z,47.00
2017-08-16T11:38:34.014Z,49.60
2017-08-16T11:41:00.667Z,45.60
2017-08-16T11:43:27.243Z,45.60
2017-08-16T11:45:53.591Z,42.80
2017-08-16T11:48:19.883Z,37.80
2017-08-16T11:50:46.199Z,39.50
2017-08-16T11:53:12.475Z,36.30
2017-08-16T11:55:38.776Z,36.10
2017-08-16T11:58:05.056Z,39.30
2017-08-16T12:00:32.002Z,38.40
2017-08-16T12:02:58.281Z,38.40
2017-08-16T12:05:24.610Z,38.60
2017-08-16T12:07:50.900Z,39.50
2017-08-16T12:10:17.203Z,38.50
2017-08-16T12:12:43.505Z,35.40
2017-08-16T12:15:09.799Z,32.00
2017-08-16T12:17:36.622Z,26.70
2017-08-16T12:20:02.922Z,25.90
2017-08-16T12:22:29.280Z,27.10
2017-08-16T12:24:55.632Z,26.10
2017-08-16T12:27:21.936Z,24.10
2017-08-16T12:29:49.134Z,23.00
2017-08-16T12:32:15.447Z,21.40
2017-08-16T12:34:42.461Z,20.50
2017-08-16T12:37:08.807Z,20.40
2017-08-16T12:39:35.149Z,23.30
2017-08-16T12:42:01.491Z,24.10
2017-08-16T12:44:27.831Z,24.00
2017-08-16T12:46:54.156Z,22.00
2017-08-16T12:49:20.492Z,21.80
2017-08-16T12:51:46.787Z,21.70
2017-08-16T12:54:13.450Z,18.60
2017-08-16T12:56:39.751Z,18.60
2017-08-16T12:59:06.053Z,18.80
2017-08-16T13:01:32.323Z,18.80
2017-08-16T13:03:59.059Z,18.60
2017-08-16T13:06:25.317Z,17.00
2017-08-16T13:08:51.589Z,16.90
2017-08-16T13:11:17.881Z,17.80
2017-08-16T13:13:44.171Z,16.80
2017-08-16T13:16:10.478Z,17.00
2017-08-16T13:18:36.767Z,16.90
2017-08-16T13:21:03.046Z,15.40
2017-08-16T13:23:29.371Z,15.80
2017-08-16T13:25:55.670Z,16.10
2017-08-16T13:28:21.935Z,16.40
2017-08-16T13:30:48.241Z,16.60
2017-08-16T13:33:14.541Z,16.80
2017-08-16T13:35:40.825Z,17.20
2017-08-16T13:38:07.160Z,16.00
2017-08-16T13:40:33.889Z,17.00
2017-08-16T13:43:00.186Z,17.00
2017-08-16T13:45:26.489Z,17.20
2017-08-16T13:47:52.752Z,17.30
2017-08-16T13:50:19.070Z,16.70
2017-08-16T13:52:45.342Z,17.20
2017-08-16T13:55:11.993Z,16.80
2017-08-16T13:57:38.693Z,17.10
2017-08-16T14:00:05.010Z,17.10
2017-08-16T14:02:31.334Z,17.20
2017-08-16T14:04:57.626Z,17.30
2017-08-16T14:07:23.920Z,17.30
2017-08-16T14:09:50.851Z,17.50
2017-08-16T14:12:17.527Z,17.20
2017-08-16T14:14:43.780Z,17.00
2017-08-16T14:17:10.049Z,17.30
2017-08-16T14:19:36.361Z,16.40
2017-08-16T14:22:02.643Z,15.80
2017-08-16T14:24:28.946Z,15.90
2017-08-16T14:26:55.282Z,16.00
2017-08-16T14:29:21.563Z,17.90
2017-08-16T14:31:47.862Z,19.90
2017-08-16T14:34:14.150Z,22.40
2017-08-16T14:36:40.413Z,26.00
2017-08-16T14:39:06.763Z,27.00
2017-08-16T14:41:33.088Z,28.10
2017-08-16T14:43:59.412Z,29.50
2017-08-16T14:46:25.704Z,32.50
2017-08-16T14:48:51.994Z,34.70
2017-08-16T14:51:18.272Z,32.90
2017-08-16T14:53:44.596Z,32.30
2017-08-16T14:56:10.878Z,32.40
2017-08-16T14:58:37.189Z,33.60
2017-08-16T15:01:03.841Z,31.40
2017-08-16T15:03:30.530Z,31.60
2017-08-16T15:05:56.846Z,31.60
2017-08-16T15:08:23.766Z,29.40
2017-08-16T15:10:50.062Z,29.10
2017-08-16T15:13:16.363Z,28.30
2017-08-16T15:15:42.697Z,30.30
2017-08-16T15:18:08.994Z,30.40
2017-08-16T15:20:35.269Z,31.60
2017-08-16T15:23:01.573Z,31.90
2017-08-16T15:25:27.909Z,30.50
2017-08-16T15:27:54.165Z,31.00
2017-08-16T15:30:20.451Z,29.20
2017-08-16T15:32:46.732Z,27.30
2017-08-16T15:35:13.099Z,27.30
2017-08-16T15:37:39.622Z,26.80
2017-08-16T15:40:05.914Z,26.70
2017-08-16T15:42:32.208Z,26.50
2017-08-16T15:44:58.501Z,26.10
2017-08-16T15:47:24.803Z,26.40
2017-08-16T15:49:51.078Z,26.70
2017-08-16T15:52:17.389Z,27.00
2017-08-16T15:54:43.686Z,27.10
2017-08-16T15:57:09.978Z,28.30
2017-08-16T15:59:36.291Z,30.50
2017-08-16T16:02:02.584Z,33.90
2017-08-16T16:04:28.880Z,35.60
2017-08-16T16:06:55.174Z,37.30
2017-08-16T16:09:21.453Z,38.60
2017-08-16T16:11:47.807Z,40.60
2017-08-16T16:14:14.081Z,42.40
2017-08-16T16:16:40.369Z,43.40
2017-08-16T16:19:06.675Z,43.50
2017-08-16T16:21:33.032Z,44.60
2017-08-16T16:23:59.299Z,45.80
2017-08-16T16:26:25.600Z,46.60
2017-08-16T16:28:51.925Z,47.90
2017-08-16T16:31:18.612Z,50.30
2017-08-16T16:33:44.907Z,50.30
2017-08-16T16:36:11.452Z,51.70
2017-08-16T16:38:37.772Z,52.90
2017-08-16T16:41:04.052Z,54.50
2017-08-16T16:43:30.364Z,55.90
2017-08-16T16:45:56.660Z,56.40
2017-08-16T16:48:22.947Z,57.10
2017-08-16T16:50:49.220Z,57.90
2017-08-16T16:53:15.559Z,58.60
2017-08-16T16:55:41.842Z,59.10
2017-08-16T16:58:08.140Z,59.90
2017-08-16T17:00:34.428Z,60.00
2017-08-16T17:03:00.724Z,60.50
2017-08-16T17:05:26.993Z,60.90
2017-08-16T17:07:53.293Z,61.00
2017-08-16T17:10:19.538Z,61.70
2017-08-16T17:12:45.823Z,61.70
2017-08-16T17:15:12.099Z,61.70
2017-08-16T17:17:38.418Z,60.80
2017-08-16T17:20:04.692Z,62.10
2017-08-16T17:22:30.966Z,63.10
2017-08-16T17:24:57.253Z,62.20
2017-08-16T17:27:24.462Z,62.80
2017-08-16T17:29:50.759Z,63.00
2017-08-16T17:32:17.057Z,62.60
2017-08-16T17:34:43.366Z,63.00
2017-08-16T17:37:10.041Z,62.40
2017-08-16T17:39:36.383Z,62.40
2017-08-16T17:42:02.674Z,68.10
2017-08-16T17:44:29.351Z,68.40
2017-08-16T17:46:55.638Z,68.40
2017-08-16T17:49:21.933Z,68.40
2017-08-16T17:51:48.203Z,69.30
2017-08-16T17:54:14.514Z,69.30
2017-08-16T17:56:40.824Z,68.60
2017-08-16T17:59:07.112Z,68.20
2017-08-16T18:01:33.430Z,67.70
2017-08-16T18:03:59.747Z,66.80
2017-08-16T18:06:26.049Z,67.20
2017-08-16T18:08:52.329Z,67.30
2017-08-16T18:11:18.616Z,67.30
2017-08-16T18:13:44.903Z,68.80
2017-08-16T18:16:11.299Z,68.50
2017-08-16T18:18:38.382Z,68.20
2017-08-16T18:21:04.712Z,68.90
2017-08-16T18:23:31.017Z,69.10
2017-08-16T18:25:57.292Z,69.60
2017-08-16T18:28:23.607Z,69.30
2017-08-16T18:30:49.906Z,69.20
2017-08-16T18:33:16.164Z,69.10
2017-08-16T18:35:42.479Z,69.20
2017-08-16T18:38:08.769Z,69.60
2017-08-16T18:40:36.382Z,70.00
2017-08-16T18:43:02.687Z,70.00
2017-08-16T18:45:29.928Z,70.20
2017-08-16T18:47:56.195Z,70.30
2017-08-16T18:50:22.882Z,70.10
2017-08-16T18:52:49.167Z,70.50
2017-08-16T18:55:16.468Z,70.80
2017-08-16T18:57:42.738Z,71.30
2017-08-16T19:00:09.025Z,71.70
2017-08-16T19:02:35.403Z,71.20
2017-08-16T19:05:01.708Z,71.20
2017-08-16T19:07:28.072Z,71.40
2017-08-16T19:09:54.332Z,71.70
2017-08-16T19:12:20.953Z,71.60
2017-08-16T19:14:47.297Z,72.20
2017-08-16T19:17:13.582Z,72.30
2017-08-16T19:19:40.831Z,72.40
2017-08-16T19:22:07.976Z,72.20
2017-08-16T19:24:34.253Z,72.40
2017-08-16T19:27:00.548Z,72.60
2017-08-16T19:29:26.837Z,72.80
2017-08-16T19:31:53.180Z,73.10
2017-08-16T19:34:19.828Z,73.40
2017-08-16T19:36:46.132Z,73.40
2017-08-16T19:39:12.407Z,73.40
2017-08-16T19:41:38.738Z,73.80
2017-08-16T19:44:05.032Z,74.00
2017-08-16T19:46:31.310Z,73.80
2017-08-16T19:48:57.641Z,74.00
2017-08-16T19:51:23.944Z,74.60
2017-08-16T19:53:50.257Z,74.50
2017-08-16T19:56:16.567Z,74.40
2017-08-16T19:58:43.829Z,75.10
2017-08-16T20:01:10.167Z,74.80
2017-08-16T20:03:36.840Z,75.00
2017-08-16T20:06:03.150Z,75.00
2017-08-16T20:08:29.462Z,74.80
2017-08-16T20:10:55.781Z,75.00
2017-08-16T20:13:22.103Z,75.00
2017-08-16T20:15:48.423Z,75.00
2017-08-16T20:18:14.709Z,74.90
2017-08-16T20:20:41.052Z,75.00
2017-08-16T20:23:07.355Z,75.10
2017-08-16T20:25:33.666Z,75.90
2017-08-16T20:28:00.331Z,75.30
2017-08-16T20:30:26.625Z,75.30
2017-08-16T20:32:52.933Z,75.40
2017-08-16T20:35:20.180Z,75.70
2017-08-16T20:37:46.647Z,75.70
2017-08-16T20:40:13.327Z,75.50
2017-08-16T20:42:40.697Z,75.50
2017-08-16T20:45:07.359Z,76.50
2017-08-16T20:47:33.618Z,76.40
2017-08-16T20:50:00.249Z,76.10
2017-08-16T20:52:27.468Z,76.50
2017-08-16T20:54:53.735Z,76.50
2017-08-16T20:57:20.433Z,76.30
2017-08-16T20:59:46.727Z,76.30
2017-08-16T21:02:13.867Z,76.20
2017-08-16T21:04:40.617Z,76.30
2017-08-16T21:07:06.923Z,75.90
2017-08-16T21:09:33.571Z,76.10
2017-08-16T21:11:59.859Z,76.10
2017-08-16T21:14:26.143Z,76.10
2017-08-16T21:16:52.458Z,76.70
2017-08-16T21:19:18.799Z,76.60
2017-08-16T21:21:45.108Z,76.70
2017-08-16T21:24:11.413Z,76.60
2017-08-16T21:26:37.790Z,76.50
2017-08-16T21:29:04.053Z,77.10
2017-08-16T21:31:30.372Z,77.00
2017-08-16T21:33:56.673Z,77.10
2017-08-16T21:36:22.943Z,77.40
2017-08-16T21:38:49.625Z,77.70
2017-08-16T21:41:15.894Z,77.40
2017-08-16T21:43:42.201Z,77.70
2017-08-16T21:46:08.500Z,78.00
2017-08-16T21:48:34.804Z,78.10
2017-08-16T21:51:01.833Z,78.40
2017-08-16T21:53:28.131Z,78.30
2017-08-16T21:55:54.393Z,78.00
2017-08-16T21:58:20.702Z,77.80
2017-08-16T22:00:46.967Z,77.80
2017-08-16T22:03:13.525Z,77.80
2017-08-16T22:05:39.800Z,77.70
2017-08-16T22:08:06.079Z,78.00
2017-08-16T22:10:32.400Z,78.00
2017-08-16T22:12:58.686Z,78.00
2017-08-16T22:15:24.990Z,78.10
2017-08-16T22:17:51.676Z,78.40
2017-08-16T22:20:17.986Z,78.40
2017-08-16T22:22:44.284Z,78.60
2017-08-16T22:25:10.590Z,78.40
2017-08-16T22:27:36.864Z,78.70
2017-08-16T22:30:03.148Z,78.60
2017-08-16T22:32:29.434Z,78.70
2017-08-16T22:34:55.735Z,78.70
2017-08-16T22:37:22.028Z,78.80
2017-08-16T22:39:48.300Z,78.90
2017-08-16T22:42:14.578Z,78.70
2017-08-16T22:44:40.857Z,78.90
2017-08-16T22:47:07.140Z,78.80
2017-08-16T22:49:33.446Z,79.10
2017-08-16T22:51:59.707Z,79.00
2017-08-16T22:54:26.016Z,78.80
2017-08-16T22:56:52.289Z,78.80
2017-08-16T22:59:19.953Z,78.90
2017-08-16T23:01:47.415Z,79.10
2017-08-16T23:04:13.816Z,79.10
2017-08-16T23:06:40.106Z,79.20
2017-08-16T23:09:06.389Z,79.20
2017-08-16T23:11:32.644Z,79.10
2017-08-16T23:13:58.919Z,79.30
2017-08-16T23:16:25.201Z,78.90
2017-08-16T23:18:51.860Z,78.90
2017-08-16T23:21:18.133Z,78.90
2017-08-16T23:23:44.421Z,78.80
2017-08-16T23:26:10.681Z,79.00
2017-08-16T23:28:36.929Z,79.10
2017-08-16T23:31:03.217Z,79.40
2017-08-16T23:33:29.493Z,79.30
2017-08-16T23:35:55.787Z,79.20
2017-08-16T23:38:22.061Z,79.30
2017-08-16T23:40:54.314Z,79.30
2017-08-16T23:43:20.588Z,79.30
2017-08-16T23:45:46.879Z,79.50
2017-08-16T23:48:13.175Z,79.60
2017-08-16T23:50:39.448Z,80.10
2017-08-16T23:53:05.732Z,80.80
2017-08-16T23:55:32.024Z,80.70
2017-08-16T23:57:58.297Z,80.70
